Achtergracht — PCCL — position and weather

sailwx.info

Track history (hours):
 
Tides and Currents Weather Stations Pressure Air Temp Water Temp Dewpoint Dewpoint Depression Visibility Wind Speed Wind Dir Waves Ship Positions

Achtergracht

Last reported at 2015-May-04 20:33 UTC. Time now 2015-May-04 21:08 UTC.
Position N 54°48' E 013°07'.

Length 130 m; beam 19 m; draft 9 m.

Type: Cargo ship. MMSI: 244601000.

Date/timePositionNaut miles runAvg speedWind from/ knotsBaromVisibWave heightAir tempDewpointWater temp
2015-May-04 20:33N 54°48' E 013°07'1312.7
2015-May-04 19:33N 54°45' E 012°46'1312.6
2015-May-04 18:33N 54°38' E 012°27'1212.4
2015-May-04 17:34N 54°28' E 012°14'1111.3
2015-May-04 16:33N 54°25' E 011°55'1212.2
2015-May-04 15:33N 54°28' E 011°35'1212.5
2015-May-04 14:33N 54°34' E 011°16'1212.2
2015-May-04 13:33N 54°35' E 010°55'1313.3
2015-May-04 12:34N 54°33' E 010°32'1212.0
2015-May-04 11:33N 54°27' E 010°14'6 6.1
2015-May-04 10:34N 54°22' E 010°08'4 4.1
2015-May-04 09:33N 54°22' E 010°01'3 2.9
2015-May-04 08:33N 54°20' E 009°57'5 5.2
2015-May-04 07:33N 54°22' E 009°48'6 5.5
2015-May-04 06:34N 54°18' E 009°42'6 6.0
2015-May-04 05:33N 54°13' E 009°35'7 6.5
2015-May-04 04:32N 54°10' E 009°25'6 6.2
2015-May-04 03:33N 54°05' E 009°19'4 4.5
2015-May-04 02:33N 54°01' E 009°18'7 6.7
2015-May-04 01:34N 53°55' E 009°11'2 2.3
2015-May-04 00:33N 53°54' E 009°09'1 1.2
2015-May-03 23:33N 53°53' E 009°07'3 2.9
2015-May-03 22:33N 53°52' E 009°02'1312.8
2015-May-03 21:34N 53°54' E 008°41'1515.2
2015-May-03 20:33N 53°60' E 008°17'1313.5
2015-May-03 19:34N 53°58' E 007°54'1414.2
2015-May-03 18:33N 53°54' E 007°31'1313.3
2015-May-03 17:32N 53°51' E 007°08'2912.1
2015-May-03 15:09N 53°44' E 006°21'711.6
2015-May-03 14:33N 53°42' E 006°10'1111.4
2015-May-03 13:34N 53°39' E 005°51'1111.0
2015-May-03 12:33N 53°35' E 005°34'1119.1
2015-May-03 12:00N 53°30' E 005°18'2 5.2 080 / 171000.7 5.4 1.511.2 5.7 6.0
2015-May-03 11:33N 53°32' E 005°16'1111.4
2015-May-03 10:33N 53°28' E 004°58'1111.4
2015-May-03 09:33N 53°22' E 004°42'1212.5
2015-May-03 08:33N 53°11' E 004°32'1312.6
2015-May-03 07:33N 52°60' E 004°22'1313.1
2015-May-03 06:33N 52°48' E 004°12'1312.8
2015-May-03 05:33N 52°39' E 003°58'1413.0
2015-May-03 04:28N 52°29' E 003°41'1313.3
2015-May-03 03:31N 52°20' E 003°26'5914.4
2015-May-02 23:25N 51°35' E 002°23'1314.8
2015-May-02 22:33N 51°26' E 002°10'1212.0
2015-May-02 21:31N 51°14' E 002°04'1212.5
2015-May-02 20:33N 51°07' E 001°48'1211.5
2015-May-02 19:33N 50°59' E 001°35'1010.4
2015-May-02 18:34N 50°51' E 001°25'7311.1
2015-May-02 12:00N 50°12' W 000°12'23813.2 110 / 131008.3 2.2 1.010.7 3.711.0
2015-May-01 18:00N 48°30' W 005°42'7212.0 999 / 31007.5 1.1 11.5 8.7
2015-May-01 12:00N 47°24' W 006°24'8013.3 220 / 171005.9 1.1 1.514.5 8.715.0
2015-May-01 06:00N 46°18' W 007°30'7412.3 250 / 151004.5 2.2 1.013.511.4
2015-May-01 00:00N 45°12' W 008°18'8013.3 220 / 211008.5 2.2 2.013.7 7.115.0
2015-Apr-30 18:00N 44°00' W 009°06'7111.8 220 / 201013.5 2.2 1.514.012.6
2015-Apr-30 12:00N 42°54' W 009°42'8414.0 220 / 171016.9 1.1 2.015.9 7.615.0
2015-Apr-30 06:00N 41°30' W 009°48'7212.0 240 / 81020.510.8 0.514.511.9
2015-Apr-30 00:00N 40°18' W 009°48'5812.5 330 / 151023.1 5.4 1.514.4 9.615.0
2015-Apr-29 19:19N 39°20' W 009°50'1012.7
2015-Apr-29 18:33N 39°10' W 009°50'1312.8
2015-Apr-29 17:33N 38°57' W 009°50'1312.9
2015-Apr-29 16:33N 38°44' W 009°50'1312.8
2015-Apr-29 15:33N 38°31' W 009°47'1312.7
2015-Apr-29 14:33N 38°19' W 009°44'1312.8
2015-Apr-29 13:33N 38°07' W 009°40'1312.9
2015-Apr-29 12:33N 37°54' W 009°36'1323.6
2015-Apr-29 12:00N 37°42' W 009°30'2 5.1 999 / 21021.110.8 1.519.315.217.0
2015-Apr-29 11:33N 37°42' W 009°33'1413.0
2015-Apr-29 10:29N 37°28' W 009°29'6211.6
2015-Apr-29 05:09N 36°38' W 008°43'1013.0
2015-Apr-29 04:22N 36°35' W 008°31'6314.5
2015-Apr-29 00:00N 36°12' W 007°18'7512.5 300 / 151020.4 5.4 1.515.9 8.117.0
2015-Apr-28 18:00N 35°54' W 005°48'22 9.0 230 / 81019.110.8 0.517.214.1
2015-Apr-28 15:33N 36°00' W 005°22'12012.8
2015-Apr-28 06:10N 36°20' W 002°56'1161.9
2015-Apr-28 06:00N 36°18' W 002°42'4 9.6 230 / 101017.010.8 0.515.512.6
2015-Apr-28 05:33N 36°21' W 002°46'1313.0
2015-Apr-28 04:31N 36°23' W 002°29'1313.2
2015-Apr-28 03:33N 36°25' W 002°13'5415.3
2015-Apr-28 00:00N 36°30' W 001°06'15 9.1 240 / 171017.5 5.4 1.515.9 9.515.0
2015-Apr-27 22:19N 36°34' W 000°48'1012.2
2015-Apr-27 21:30N 36°36' W 000°36'2311.5
2015-Apr-27 19:31N 36°39' W 000°07'1111.0
2015-Apr-27 18:33N 36°41' E 000°06'5 9.2
2015-Apr-27 18:00N 36°42' E 000°12'512.5 270 / 201014.5 5.4 1.018.015.6
2015-Apr-27 17:33N 36°43' E 000°19'1010.0
2015-Apr-27 16:31N 36°44' E 000°32'42 9.3
2015-Apr-27 12:00N 36°48' E 001°24'116 9.6 250 / 291013.7 5.4 3.018.713.115.0
2015-Apr-27 00:00N 37°00' E 003°48'13512.9 260 / 221010.3 5.4 1.518.313.415.0
2015-Apr-26 13:30N 37°24' E 006°35'1413.2
2015-Apr-26 12:27N 37°26' E 006°53'13613.1
2015-Apr-26 02:03N 37°39' E 009°44'2713.2
2015-Apr-26 00:00N 37°36' E 010°18'612.1 999 / 31015.9 5.4 1.015.110.916.0
2015-Apr-25 23:32N 37°36' E 010°25'1413.2
2015-Apr-25 22:26N 37°33' E 010°43'4213.4
2015-Apr-25 19:17N 37°17' E 011°32'2413.6
2015-Apr-25 17:32N 37°06' E 011°59'1313.4
2015-Apr-25 16:32N 37°02' E 012°14'4013.2
2015-Apr-25 13:30N 36°50' E 013°02'1713.1
2015-Apr-25 12:14N 36°44' E 013°22'311.4
2015-Apr-25 12:00N 36°42' E 013°24'1214.2 999 / 31015.2 5.4 0.519.114.617.0
2015-Apr-25 11:08N 36°40' E 013°39'712.7
2015-Apr-25 10:33N 36°38' E 013°48'1312.6
2015-Apr-25 09:33N 36°34' E 014°03'1312.9
2015-Apr-25 08:33N 36°30' E 014°18'1312.9
2015-Apr-25 07:33N 36°27' E 014°34'9813.0
2015-Apr-25 00:00N 36°24' E 016°36'   260 / 151016.3 5.4 1.515.911.617.0
Track history (hours):
 
Tides and Currents Weather Stations Pressure Air Temp Water Temp Dewpoint Dewpoint Depression Visibility Wind Speed Wind Dir Waves Ship Positions

Achtergracht

Last reported at 2015-May-04 20:33 UTC. Time now 2015-May-04 21:08 UTC.
Position N 54°48' E 013°07'.

Length 130 m; beam 19 m; draft 9 m.

Type: Cargo ship. MMSI: 244601000.

Date/timePositionNaut miles runAvg speedWind from/ knotsBaromVisibWave heightAir tempDewpointWater temp
2015-May-04 20:33N 54°48' E 013°07'1312.7
2015-May-04 19:33N 54°45' E 012°46'1312.6
2015-May-04 18:33N 54°38' E 012°27'1212.4
2015-May-04 17:34N 54°28' E 012°14'1111.3
2015-May-04 16:33N 54°25' E 011°55'1212.2
2015-May-04 15:33N 54°28' E 011°35'1212.5
2015-May-04 14:33N 54°34' E 011°16'1212.2
2015-May-04 13:33N 54°35' E 010°55'1313.3
2015-May-04 12:34N 54°33' E 010°32'1212.0
2015-May-04 11:33N 54°27' E 010°14'6 6.1
2015-May-04 10:34N 54°22' E 010°08'4 4.1
2015-May-04 09:33N 54°22' E 010°01'3 2.9
2015-May-04 08:33N 54°20' E 009°57'5 5.2
2015-May-04 07:33N 54°22' E 009°48'6 5.5
2015-May-04 06:34N 54°18' E 009°42'6 6.0
2015-May-04 05:33N 54°13' E 009°35'7 6.5
2015-May-04 04:32N 54°10' E 009°25'6 6.2
2015-May-04 03:33N 54°05' E 009°19'4 4.5
2015-May-04 02:33N 54°01' E 009°18'7 6.7
2015-May-04 01:34N 53°55' E 009°11'2 2.3
2015-May-04 00:33N 53°54' E 009°09'1 1.2
2015-May-03 23:33N 53°53' E 009°07'3 2.9
2015-May-03 22:33N 53°52' E 009°02'1312.8
2015-May-03 21:34N 53°54' E 008°41'1515.2
2015-May-03 20:33N 53°60' E 008°17'1313.5
2015-May-03 19:34N 53°58' E 007°54'1414.2
2015-May-03 18:33N 53°54' E 007°31'1313.3
2015-May-03 17:32N 53°51' E 007°08'2912.1
2015-May-03 15:09N 53°44' E 006°21'711.6
2015-May-03 14:33N 53°42' E 006°10'1111.4
2015-May-03 13:34N 53°39' E 005°51'1111.0
2015-May-03 12:33N 53°35' E 005°34'1119.1
2015-May-03 12:00N 53°30' E 005°18'2 5.2 080 / 171000.7 5.4 1.511.2 5.7 6.0
2015-May-03 11:33N 53°32' E 005°16'1111.4
2015-May-03 10:33N 53°28' E 004°58'1111.4
2015-May-03 09:33N 53°22' E 004°42'1212.5
2015-May-03 08:33N 53°11' E 004°32'1312.6
2015-May-03 07:33N 52°60' E 004°22'1313.1
2015-May-03 06:33N 52°48' E 004°12'1312.8
2015-May-03 05:33N 52°39' E 003°58'1413.0
2015-May-03 04:28N 52°29' E 003°41'1313.3
2015-May-03 03:31N 52°20' E 003°26'5914.4
2015-May-02 23:25N 51°35' E 002°23'1314.8
2015-May-02 22:33N 51°26' E 002°10'1212.0
2015-May-02 21:31N 51°14' E 002°04'1212.5
2015-May-02 20:33N 51°07' E 001°48'1211.5
2015-May-02 19:33N 50°59' E 001°35'1010.4
2015-May-02 18:34N 50°51' E 001°25'7311.1
2015-May-02 12:00N 50°12' W 000°12'23813.2 110 / 131008.3 2.2 1.010.7 3.711.0
2015-May-01 18:00N 48°30' W 005°42'7212.0 999 / 31007.5 1.1 11.5 8.7
2015-May-01 12:00N 47°24' W 006°24'8013.3 220 / 171005.9 1.1 1.514.5 8.715.0
2015-May-01 06:00N 46°18' W 007°30'7412.3 250 / 151004.5 2.2 1.013.511.4
2015-May-01 00:00N 45°12' W 008°18'8013.3 220 / 211008.5 2.2 2.013.7 7.115.0
2015-Apr-30 18:00N 44°00' W 009°06'7111.8 220 / 201013.5 2.2 1.514.012.6
2015-Apr-30 12:00N 42°54' W 009°42'8414.0 220 / 171016.9 1.1 2.015.9 7.615.0
2015-Apr-30 06:00N 41°30' W 009°48'7212.0 240 / 81020.510.8 0.514.511.9
2015-Apr-30 00:00N 40°18' W 009°48'5812.5 330 / 151023.1 5.4 1.514.4 9.615.0
2015-Apr-29 19:19N 39°20' W 009°50'1012.7
2015-Apr-29 18:33N 39°10' W 009°50'1312.8
2015-Apr-29 17:33N 38°57' W 009°50'1312.9
2015-Apr-29 16:33N 38°44' W 009°50'1312.8
2015-Apr-29 15:33N 38°31' W 009°47'1312.7
2015-Apr-29 14:33N 38°19' W 009°44'1312.8
2015-Apr-29 13:33N 38°07' W 009°40'1312.9
2015-Apr-29 12:33N 37°54' W 009°36'1323.6
2015-Apr-29 12:00N 37°42' W 009°30'2 5.1 999 / 21021.110.8 1.519.315.217.0
2015-Apr-29 11:33N 37°42' W 009°33'1413.0
2015-Apr-29 10:29N 37°28' W 009°29'6211.6
2015-Apr-29 05:09N 36°38' W 008°43'1013.0
2015-Apr-29 04:22N 36°35' W 008°31'6314.5
2015-Apr-29 00:00N 36°12' W 007°18'7512.5 300 / 151020.4 5.4 1.515.9 8.117.0
2015-Apr-28 18:00N 35°54' W 005°48'22 9.0 230 / 81019.110.8 0.517.214.1
2015-Apr-28 15:33N 36°00' W 005°22'12012.8
2015-Apr-28 06:10N 36°20' W 002°56'1161.9
2015-Apr-28 06:00N 36°18' W 002°42'4 9.6 230 / 101017.010.8 0.515.512.6
2015-Apr-28 05:33N 36°21' W 002°46'1313.0
2015-Apr-28 04:31N 36°23' W 002°29'1313.2
2015-Apr-28 03:33N 36°25' W 002°13'5415.3
2015-Apr-28 00:00N 36°30' W 001°06'15 9.1 240 / 171017.5 5.4 1.515.9 9.515.0
2015-Apr-27 22:19N 36°34' W 000°48'1012.2
2015-Apr-27 21:30N 36°36' W 000°36'2311.5
2015-Apr-27 19:31N 36°39' W 000°07'1111.0
2015-Apr-27 18:33N 36°41' E 000°06'5 9.2
2015-Apr-27 18:00N 36°42' E 000°12'512.5 270 / 201014.5 5.4 1.018.015.6
2015-Apr-27 17:33N 36°43' E 000°19'1010.0
2015-Apr-27 16:31N 36°44' E 000°32'42 9.3
2015-Apr-27 12:00N 36°48' E 001°24'116 9.6 250 / 291013.7 5.4 3.018.713.115.0
2015-Apr-27 00:00N 37°00' E 003°48'13512.9 260 / 221010.3 5.4 1.518.313.415.0
2015-Apr-26 13:30N 37°24' E 006°35'1413.2
2015-Apr-26 12:27N 37°26' E 006°53'13613.1
2015-Apr-26 02:03N 37°39' E 009°44'2713.2
2015-Apr-26 00:00N 37°36' E 010°18'612.1 999 / 31015.9 5.4 1.015.110.916.0
2015-Apr-25 23:32N 37°36' E 010°25'1413.2
2015-Apr-25 22:26N 37°33' E 010°43'4213.4
2015-Apr-25 19:17N 37°17' E 011°32'2413.6
2015-Apr-25 17:32N 37°06' E 011°59'1313.4
2015-Apr-25 16:32N 37°02' E 012°14'4013.2
2015-Apr-25 13:30N 36°50' E 013°02'1713.1
2015-Apr-25 12:14N 36°44' E 013°22'311.4
2015-Apr-25 12:00N 36°42' E 013°24'1214.2 999 / 31015.2 5.4 0.519.114.617.0
2015-Apr-25 11:08N 36°40' E 013°39'712.7
2015-Apr-25 10:33N 36°38' E 013°48'1312.6
2015-Apr-25 09:33N 36°34' E 014°03'1312.9
2015-Apr-25 08:33N 36°30' E 014°18'1312.9
2015-Apr-25 07:33N 36°27' E 014°34'9813.0
2015-Apr-25 00:00N 36°24' E 016°36'   260 / 151016.3 5.4 1.515.911.617.0

Dump ship's entire track history